sensor_id;sensor_type;location;lat;lon;timestamp;pressure;altitude;pressure_sealevel;temperature;humidity
21100;BME280;10708;50.824;4.408;2023-03-18T00:04:20;99838.59;;;11.95;100.00
21100;BME280;10708;50.824;4.408;2023-03-18T00:09:24;99845.44;;;11.82;100.00
21100;BME280;10708;50.824;4.408;2023-03-18T00:14:27;99854.72;;;11.72;100.00
21100;BME280;10708;50.824;4.408;2023-03-18T00:19:31;99863.03;;;11.64;100.00
21100;BME280;10708;50.824;4.408;2023-03-18T00:24:34;99872.28;;;11.56;100.00
21100;BME280;10708;50.824;4.408;2023-03-18T00:29:36;99875.13;;;11.51;100.00
21100;BME280;10708;50.824;4.408;2023-03-18T00:34:41;99885.28;;;11.41;100.00
21100;BME280;10708;50.824;4.408;2023-03-18T00:39:43;99882.03;;;11.36;100.00
21100;BME280;10708;50.824;4.408;2023-03-18T00:44:46;99883.19;;;11.31;100.00
21100;BME280;10708;50.824;4.408;2023-03-18T00:49:50;99895.56;;;11.29;100.00
21100;BME280;10708;50.824;4.408;2023-03-18T00:54:52;99889.63;;;11.25;100.00
21100;BME280;10708;50.824;4.408;2023-03-18T00:59:55;99904.59;;;11.25;100.00
21100;BME280;10708;50.824;4.408;2023-03-18T01:05:00;99906.44;;;11.23;100.00
21100;BME280;10708;50.824;4.408;2023-03-18T01:10:04;99894.25;;;11.20;100.00
21100;BME280;10708;50.824;4.408;2023-03-18T01:15:09;99896.09;;;11.18;100.00
21100;BME280;10708;50.824;4.408;2023-03-18T01:20:17;99896.09;;;11.18;100.00
21100;BME280;10708;50.824;4.408;2023-03-18T01:25:20;99903.19;;;11.18;100.00
21100;BME280;10708;50.824;4.408;2023-03-18T01:30:23;99905.09;;;11.14;100.00
21100;BME280;10708;50.824;4.408;2023-03-18T01:35:27;99900.69;;;11.15;100.00
21100;BME280;10708;50.824;4.408;2023-03-18T01:40:30;99889.44;;;11.11;100.00
21100;BME280;10708;50.824;4.408;2023-03-18T01:45:33;99890.34;;;11.10;100.00
21100;BME280;10708;50.824;4.408;2023-03-18T01:50:38;99893.06;;;11.08;100.00
21100;BME280;10708;50.824;4.408;2023-03-18T01:55:40;99901.75;;;11.10;100.00
21100;BME280;10708;50.824;4.408;2023-03-18T02:00:48;99903.53;;;11.10;100.00
21100;BME280;10708;50.824;4.408;2023-03-18T02:05:54;99890.41;;;11.08;100.00
21100;BME280;10708;50.824;4.408;2023-03-18T02:10:57;99891.38;;;11.07;100.00
21100;BME280;10708;50.824;4.408;2023-03-18T02:16:03;99894.00;;;11.07;100.00
21100;BME280;10708;50.824;4.408;2023-03-18T02:21:19;99878.28;;;11.06;100.00
21100;BME280;10708;50.824;4.408;2023-03-18T02:26:29;99881.91;;;11.03;100.00
21100;BME280;10708;50.824;4.408;2023-03-18T02:31:36;99879.34;;;11.02;100.00
21100;BME280;10708;50.824;4.408;2023-03-18T02:36:39;99897.91;;;10.99;100.00
21100;BME280;10708;50.824;4.408;2023-03-18T02:41:43;99899.94;;;10.94;100.00
21100;BME280;10708;50.824;4.408;2023-03-18T02:46:51;99908.97;;;10.88;100.00
21100;BME280;10708;50.824;4.408;2023-03-18T02:51:55;99904.78;;;10.84;100.00
21100;BME280;10708;50.824;4.408;2023-03-18T02:56:58;99901.50;;;10.79;100.00
21100;BME280;10708;50.824;4.408;2023-03-18T03:02:04;99902.84;;;10.69;100.00
21100;BME280;10708;50.824;4.408;2023-03-18T03:07:06;99906.84;;;10.59;100.00
21100;BME280;10708;50.824;4.408;2023-03-18T03:12:09;99900.22;;;10.50;100.00
21100;BME280;10708;50.824;4.408;2023-03-18T03:17:13;99902.47;;;10.39;100.00
21100;BME280;10708;50.824;4.408;2023-03-18T03:22:16;99908.16;;;10.30;100.00
21100;BME280;10708;50.824;4.408;2023-03-18T03:27:19;99914.00;;;10.18;100.00
21100;BME280;10708;50.824;4.408;2023-03-18T03:32:24;99917.19;;;10.04;100.00
21100;BME280;10708;50.824;4.408;2023-03-18T03:37:26;99929.03;;;9.94;100.00
21100;BME280;10708;50.824;4.408;2023-03-18T03:42:29;99924.09;;;9.86;100.00
21100;BME280;10708;50.824;4.408;2023-03-18T03:47:33;99928.06;;;9.76;100.00
21100;BME280;10708;50.824;4.408;2023-03-18T03:52:36;99939.66;;;9.71;100.00
21100;BME280;10708;50.824;4.408;2023-03-18T03:57:39;99932.97;;;9.63;100.00
21100;BME280;10708;50.824;4.408;2023-03-18T04:02:43;99926.09;;;9.59;100.00
21100;BME280;10708;50.824;4.408;2023-03-18T04:07:46;99933.34;;;9.54;100.00
21100;BME280;10708;50.824;4.408;2023-03-18T04:12:49;99922.25;;;9.48;100.00
21100;BME280;10708;50.824;4.408;2023-03-18T04:17:53;99936.34;;;9.45;100.00
21100;BME280;10708;50.824;4.408;2023-03-18T04:22:56;99945.28;;;9.41;100.00
21100;BME280;10708;50.824;4.408;2023-03-18T04:27:58;99928.66;;;9.41;100.00
21100;BME280;10708;50.824;4.408;2023-03-18T04:33:02;99933.41;;;9.31;100.00
21100;BME280;10708;50.824;4.408;2023-03-18T04:38:05;99939.59;;;9.30;100.00
21100;BME280;10708;50.824;4.408;2023-03-18T04:43:07;99951.09;;;9.28;100.00
21100;BME280;10708;50.824;4.408;2023-03-18T04:48:12;99943.28;;;9.26;100.00
21100;BME280;10708;50.824;4.408;2023-03-18T04:53:14;99953.00;;;9.24;100.00
21100;BME280;10708;50.824;4.408;2023-03-18T04:58:17;99953.09;;;9.21;100.00
21100;BME280;10708;50.824;4.408;2023-03-18T05:03:21;99954.91;;;9.19;100.00
21100;BME280;10708;50.824;4.408;2023-03-18T05:08:24;99971.69;;;9.16;100.00
21100;BME280;10708;50.824;4.408;2023-03-18T05:13:26;99971.44;;;9.22;100.00
21100;BME280;10708;50.824;4.408;2023-03-18T05:18:30;99964.28;;;9.26;100.00
21100;BME280;10708;50.824;4.408;2023-03-18T05:23:33;99958.19;;;9.25;100.00
21100;BME280;10708;50.824;4.408;2023-03-18T05:28:36;99954.00;;;9.20;100.00
21100;BME280;10708;50.824;4.408;2023-03-18T05:33:40;99962.94;;;9.16;100.00
21100;BME280;10708;50.824;4.408;2023-03-18T05:38:43;99963.91;;;9.13;100.00
21100;BME280;10708;50.824;4.408;2023-03-18T05:43:45;99968.50;;;9.08;100.00
21100;BME280;10708;50.824;4.408;2023-03-18T05:48:50;99972.03;;;9.07;100.00
21100;BME280;10708;50.824;4.408;2023-03-18T05:53:52;99973.13;;;9.02;100.00
21100;BME280;10708;50.824;4.408;2023-03-18T05:58:54;99972.41;;;8.98;100.00
21100;BME280;10708;50.824;4.408;2023-03-18T06:03:59;99971.59;;;8.96;100.00
21100;BME280;10708;50.824;4.408;2023-03-18T06:09:01;99965.44;;;8.97;100.00
21100;BME280;10708;50.824;4.408;2023-03-18T06:14:05;99974.94;;;9.00;100.00
21100;BME280;10708;50.824;4.408;2023-03-18T06:19:09;99972.25;;;9.01;100.00
21100;BME280;10708;50.824;4.408;2023-03-18T06:24:12;99986.19;;;9.03;100.00
21100;BME280;10708;50.824;4.408;2023-03-18T06:29:15;100001.91;;;9.05;100.00
21100;BME280;10708;50.824;4.408;2023-03-18T06:34:19;99997.41;;;9.08;100.00
21100;BME280;10708;50.824;4.408;2023-03-18T06:39:22;100002.22;;;9.19;100.00
21100;BME280;10708;50.824;4.408;2023-03-18T06:44:24;100006.19;;;9.29;100.00
21100;BME280;10708;50.824;4.408;2023-03-18T06:49:28;100006.56;;;9.42;100.00
21100;BME280;10708;50.824;4.408;2023-03-18T06:54:31;100007.50;;;9.62;100.00
21100;BME280;10708;50.824;4.408;2023-03-18T06:59:34;100011.00;;;9.83;100.00
21100;BME280;10708;50.824;4.408;2023-03-18T07:04:38;100018.19;;;10.00;100.00
21100;BME280;10708;50.824;4.408;2023-03-18T07:09:42;100018.19;;;10.22;100.00
21100;BME280;10708;50.824;4.408;2023-03-18T07:14:44;100018.00;;;10.47;100.00
21100;BME280;10708;50.824;4.408;2023-03-18T07:19:48;100034.53;;;10.69;100.00
21100;BME280;10708;50.824;4.408;2023-03-18T07:24:51;100029.09;;;10.92;100.00
21100;BME280;10708;50.824;4.408;2023-03-18T07:29:54;100039.69;;;11.09;100.00
21100;BME280;10708;50.824;4.408;2023-03-18T07:34:59;100040.06;;;11.21;100.00
21100;BME280;10708;50.824;4.408;2023-03-18T07:40:03;100042.56;;;11.24;100.00
21100;BME280;10708;50.824;4.408;2023-03-18T07:45:07;100039.13;;;11.22;100.00
21100;BME280;10708;50.824;4.408;2023-03-18T07:50:11;100026.03;;;11.20;100.00
21100;BME280;10708;50.824;4.408;2023-03-18T07:55:14;100031.78;;;11.28;100.00
21100;BME280;10708;50.824;4.408;2023-03-18T08:00:18;100043.63;;;11.38;100.00
21100;BME280;10708;50.824;4.408;2023-03-18T08:05:22;100036.88;;;11.69;100.00
21100;BME280;10708;50.824;4.408;2023-03-18T08:10:25;100042.44;;;11.81;100.00
21100;BME280;10708;50.824;4.408;2023-03-18T08:15:27;100036.19;;;12.01;100.00
21100;BME280;10708;50.824;4.408;2023-03-18T08:20:31;100045.50;;;12.08;100.00
21100;BME280;10708;50.824;4.408;2023-03-18T08:25:33;100049.50;;;12.17;100.00
21100;BME280;10708;50.824;4.408;2023-03-18T08:30:37;100047.44;;;12.22;100.00
21100;BME280;10708;50.824;4.408;2023-03-18T08:35:41;100049.63;;;12.31;100.00
21100;BME280;10708;50.824;4.408;2023-03-18T08:40:44;100052.66;;;12.41;100.00
21100;BME280;10708;50.824;4.408;2023-03-18T08:45:49;100052.50;;;12.44;100.00
21100;BME280;10708;50.824;4.408;2023-03-18T08:50:53;100051.84;;;12.73;100.00
21100;BME280;10708;50.824;4.408;2023-03-18T08:55:56;100044.91;;;12.71;100.00
21100;BME280;10708;50.824;4.408;2023-03-18T09:00:58;100054.69;;;12.86;100.00
21100;BME280;10708;50.824;4.408;2023-03-18T09:06:05;100048.91;;;12.95;100.00
21100;BME280;10708;50.824;4.408;2023-03-18T09:11:07;100064.44;;;13.34;100.00
21100;BME280;10708;50.824;4.408;2023-03-18T09:16:10;100052.47;;;13.58;100.00
21100;BME280;10708;50.824;4.408;2023-03-18T09:21:14;100047.19;;;13.58;100.00
21100;BME280;10708;50.824;4.408;2023-03-18T09:26:17;100043.69;;;13.58;100.00
21100;BME280;10708;50.824;4.408;2023-03-18T09:31:19;100045.59;;;13.56;100.00
21100;BME280;10708;50.824;4.408;2023-03-18T09:36:23;100038.84;;;13.50;100.00
21100;BME280;10708;50.824;4.408;2023-03-18T09:41:37;100035.25;;;13.51;100.00
21100;BME280;10708;50.824;4.408;2023-03-18T09:46:58;100042.94;;;13.40;100.00
21100;BME280;10708;50.824;4.408;2023-03-18T09:52:12;100050.16;;;13.21;100.00
21100;BME280;10708;50.824;4.408;2023-03-18T09:57:21;100057.53;;;13.16;100.00
21100;BME280;10708;50.824;4.408;2023-03-18T10:02:29;100065.44;;;12.99;100.00
21100;BME280;10708;50.824;4.408;2023-03-18T10:07:38;100080.28;;;12.85;100.00
21100;BME280;10708;50.824;4.408;2023-03-18T10:12:47;100081.28;;;12.83;100.00
21100;BME280;10708;50.824;4.408;2023-03-18T10:17:53;100092.84;;;12.80;100.00
21100;BME280;10708;50.824;4.408;2023-03-18T10:23:05;100087.34;;;12.68;100.00
21100;BME280;10708;50.824;4.408;2023-03-18T10:33:46;100095.06;;;12.55;100.00
21100;BME280;10708;50.824;4.408;2023-03-18T10:38:53;100099.56;;;12.53;100.00
21100;BME280;10708;50.824;4.408;2023-03-18T10:43:56;100098.38;;;12.58;100.00
21100;BME280;10708;50.824;4.408;2023-03-18T10:49:05;100085.03;;;12.62;100.00
21100;BME280;10708;50.824;4.408;2023-03-18T10:54:18;100089.91;;;12.69;100.00
21100;BME280;10708;50.824;4.408;2023-03-18T10:59:23;100098.84;;;12.84;100.00
21100;BME280;10708;50.824;4.408;2023-03-18T11:04:27;100093.28;;;13.06;100.00
21100;BME280;10708;50.824;4.408;2023-03-18T11:09:34;100096.75;;;13.39;100.00
21100;BME280;10708;50.824;4.408;2023-03-18T11:14:37;100098.78;;;13.67;100.00
21100;BME280;10708;50.824;4.408;2023-03-18T11:19:45;100092.69;;;13.81;100.00
21100;BME280;10708;50.824;4.408;2023-03-18T11:25:10;100084.00;;;14.09;100.00
21100;BME280;10708;50.824;4.408;2023-03-18T11:30:16;100089.56;;;14.50;100.00
21100;BME280;10708;50.824;4.408;2023-03-18T11:35:22;100078.38;;;14.74;100.00
21100;BME280;10708;50.824;4.408;2023-03-18T11:40:27;100068.75;;;14.58;100.00
21100;BME280;10708;50.824;4.408;2023-03-18T11:45:41;100065.69;;;14.65;100.00
21100;BME280;10708;50.824;4.408;2023-03-18T11:51:16;100071.25;;;14.61;100.00
21100;BME280;10708;50.824;4.408;2023-03-18T11:56:31;100073.44;;;14.68;100.00
21100;BME280;10708;50.824;4.408;2023-03-18T12:01:42;100076.94;;;14.69;100.00
21100;BME280;10708;50.824;4.408;2023-03-18T12:06:59;100067.75;;;14.89;100.00
21100;BME280;10708;50.824;4.408;2023-03-18T12:12:18;100063.16;;;15.06;100.00
21100;BME280;10708;50.824;4.408;2023-03-18T12:17:31;100051.88;;;15.17;100.00
21100;BME280;10708;50.824;4.408;2023-03-18T12:22:59;100041.66;;;14.97;100.00
21100;BME280;10708;50.824;4.408;2023-03-18T12:28:12;100040.22;;;14.91;100.00
21100;BME280;10708;50.824;4.408;2023-03-18T12:33:31;100032.84;;;14.82;100.00
21100;BME280;10708;50.824;4.408;2023-03-18T12:44:29;100036.53;;;14.80;100.00
21100;BME280;10708;50.824;4.408;2023-03-18T12:49:41;100026.50;;;14.85;100.00
21100;BME280;10708;50.824;4.408;2023-03-18T12:54:52;100025.25;;;14.90;100.00
21100;BME280;10708;50.824;4.408;2023-03-18T13:05:33;100004.34;;;14.86;100.00
21100;BME280;10708;50.824;4.408;2023-03-18T13:10:36;100006.53;;;14.93;100.00
21100;BME280;10708;50.824;4.408;2023-03-18T13:15:40;100013.63;;;15.07;100.00
21100;BME280;10708;50.824;4.408;2023-03-18T13:20:46;100020.22;;;15.14;100.00
21100;BME280;10708;50.824;4.408;2023-03-18T13:26:02;100034.97;;;15.32;100.00
21100;BME280;10708;50.824;4.408;2023-03-18T13:31:19;100034.56;;;15.52;100.00
21100;BME280;10708;50.824;4.408;2023-03-18T13:36:44;100029.19;;;15.54;100.00
21100;BME280;10708;50.824;4.408;2023-03-18T13:42:13;100023.34;;;15.76;100.00
21100;BME280;10708;50.824;4.408;2023-03-18T13:47:20;100019.81;;;16.02;100.00
21100;BME280;10708;50.824;4.408;2023-03-18T13:52:32;100015.38;;;16.15;100.00
21100;BME280;10708;50.824;4.408;2023-03-18T13:57:46;100009.22;;;15.88;100.00
21100;BME280;10708;50.824;4.408;2023-03-18T14:03:03;100008.19;;;15.91;100.00
21100;BME280;10708;50.824;4.408;2023-03-18T14:13:44;99990.81;;;16.12;100.00
21100;BME280;10708;50.824;4.408;2023-03-18T14:18:55;99993.81;;;16.20;100.00
21100;BME280;10708;50.824;4.408;2023-03-18T14:24:01;99991.47;;;16.28;100.00
21100;BME280;10708;50.824;4.408;2023-03-18T14:29:24;99991.69;;;16.38;100.00
21100;BME280;10708;50.824;4.408;2023-03-18T14:34:29;99980.47;;;16.47;100.00
21100;BME280;10708;50.824;4.408;2023-03-18T14:39:36;99972.88;;;16.41;100.00
21100;BME280;10708;50.824;4.408;2023-03-18T14:44:45;99964.28;;;16.24;100.00
21100;BME280;10708;50.824;4.408;2023-03-18T14:49:51;99965.66;;;16.30;100.00
21100;BME280;10708;50.824;4.408;2023-03-18T14:54:58;99955.47;;;16.24;100.00
21100;BME280;10708;50.824;4.408;2023-03-18T15:00:06;99946.63;;;16.11;100.00
21100;BME280;10708;50.824;4.408;2023-03-18T15:05:12;99944.84;;;16.24;100.00
21100;BME280;10708;50.824;4.408;2023-03-18T15:10:19;99943.78;;;16.27;100.00
21100;BME280;10708;50.824;4.408;2023-03-18T15:15:23;99935.38;;;16.33;100.00
21100;BME280;10708;50.824;4.408;2023-03-18T15:20:26;99940.03;;;16.29;100.00
21100;BME280;10708;50.824;4.408;2023-03-18T15:25:29;99927.59;;;16.30;100.00
21100;BME280;10708;50.824;4.408;2023-03-18T15:30:33;99922.84;;;16.35;100.00
21100;BME280;10708;50.824;4.408;2023-03-18T15:35:36;99919.84;;;16.39;100.00
21100;BME280;10708;50.824;4.408;2023-03-18T15:40:48;99910.50;;;16.34;100.00
21100;BME280;10708;50.824;4.408;2023-03-18T15:45:55;99915.16;;;16.30;100.00
21100;BME280;10708;50.824;4.408;2023-03-18T15:51:00;99920.16;;;16.09;100.00
21100;BME280;10708;50.824;4.408;2023-03-18T15:56:15;99917.59;;;16.08;100.00
21100;BME280;10708;50.824;4.408;2023-03-18T16:01:19;99917.38;;;15.98;100.00
21100;BME280;10708;50.824;4.408;2023-03-18T16:06:21;99916.31;;;15.88;100.00
21100;BME280;10708;50.824;4.408;2023-03-18T16:11:26;99912.38;;;15.81;100.00
21100;BME280;10708;50.824;4.408;2023-03-18T16:16:31;99907.47;;;15.75;100.00
21100;BME280;10708;50.824;4.408;2023-03-18T16:21:36;99905.03;;;15.72;100.00
21100;BME280;10708;50.824;4.408;2023-03-18T16:26:39;99906.16;;;15.68;100.00
21100;BME280;10708;50.824;4.408;2023-03-18T16:31:43;99894.59;;;15.69;100.00
21100;BME280;10708;50.824;4.408;2023-03-18T16:36:46;99898.16;;;15.82;100.00
21100;BME280;10708;50.824;4.408;2023-03-18T16:41:50;99900.38;;;15.75;100.00
21100;BME280;10708;50.824;4.408;2023-03-18T16:46:55;99902.91;;;15.64;100.00
21100;BME280;10708;50.824;4.408;2023-03-18T16:51:58;99909.28;;;15.47;100.00
21100;BME280;10708;50.824;4.408;2023-03-18T16:57:03;99933.88;;;15.37;100.00
21100;BME280;10708;50.824;4.408;2023-03-18T17:02:23;99938.81;;;15.29;100.00
21100;BME280;10708;50.824;4.408;2023-03-18T17:07:28;99944.53;;;15.23;100.00
21100;BME280;10708;50.824;4.408;2023-03-18T17:12:30;99952.13;;;15.14;100.00
21100;BME280;10708;50.824;4.408;2023-03-18T17:17:34;99989.63;;;15.08;100.00
21100;BME280;10708;50.824;4.408;2023-03-18T17:22:37;100062.19;;;14.65;100.00
21100;BME280;10708;50.824;4.408;2023-03-18T17:27:42;100091.66;;;13.52;100.00
21100;BME280;10708;50.824;4.408;2023-03-18T17:32:48;100079.19;;;12.72;100.00
21100;BME280;10708;50.824;4.408;2023-03-18T17:37:50;100078.03;;;12.09;100.00
21100;BME280;10708;50.824;4.408;2023-03-18T17:42:53;100082.44;;;11.72;100.00
21100;BME280;10708;50.824;4.408;2023-03-18T17:48:00;100075.66;;;11.48;100.00
21100;BME280;10708;50.824;4.408;2023-03-18T17:53:22;100075.19;;;11.40;100.00
21100;BME280;10708;50.824;4.408;2023-03-18T17:58:29;100073.03;;;11.29;100.00
21100;BME280;10708;50.824;4.408;2023-03-18T18:03:35;100083.22;;;11.18;100.00
21100;BME280;10708;50.824;4.408;2023-03-18T18:08:38;100094.28;;;11.07;100.00
21100;BME280;10708;50.824;4.408;2023-03-18T18:13:41;100074.38;;;11.00;100.00
21100;BME280;10708;50.824;4.408;2023-03-18T18:18:44;100077.25;;;10.96;100.00
21100;BME280;10708;50.824;4.408;2023-03-18T18:23:47;100081.84;;;10.91;100.00
21100;BME280;10708;50.824;4.408;2023-03-18T18:28:51;100078.34;;;10.90;100.00
21100;BME280;10708;50.824;4.408;2023-03-18T18:33:55;100077.66;;;10.87;100.00
21100;BME280;10708;50.824;4.408;2023-03-18T18:38:58;100077.66;;;10.87;100.00
21100;BME280;10708;50.824;4.408;2023-03-18T18:44:01;100079.44;;;10.86;100.00
21100;BME280;10708;50.824;4.408;2023-03-18T18:49:05;100085.69;;;10.84;100.00
21100;BME280;10708;50.824;4.408;2023-03-18T18:54:07;100089.16;;;10.84;100.00
21100;BME280;10708;50.824;4.408;2023-03-18T18:59:18;100085.69;;;10.84;100.00
21100;BME280;10708;50.824;4.408;2023-03-18T19:04:25;100086.53;;;10.84;100.00
21100;BME280;10708;50.824;4.408;2023-03-18T19:09:28;100097.94;;;10.85;100.00
21100;BME280;10708;50.824;4.408;2023-03-18T19:14:31;100100.50;;;10.86;100.00
21100;BME280;10708;50.824;4.408;2023-03-18T19:19:35;100099.66;;;10.86;100.00
21100;BME280;10708;50.824;4.408;2023-03-18T19:24:37;100109.31;;;10.85;100.00
21100;BME280;10708;50.824;4.408;2023-03-18T19:29:40;100106.75;;;10.84;100.00
21100;BME280;10708;50.824;4.408;2023-03-18T19:34:45;100105.84;;;10.85;100.00
21100;BME280;10708;50.824;4.408;2023-03-18T19:39:47;100101.34;;;10.87;100.00
21100;BME280;10708;50.824;4.408;2023-03-18T19:44:50;100111.91;;;10.87;100.00
21100;BME280;10708;50.824;4.408;2023-03-18T19:49:54;100108.25;;;10.89;100.00
21100;BME280;10708;50.824;4.408;2023-03-18T19:54:57;100117.00;;;10.90;100.00
21100;BME280;10708;50.824;4.408;2023-03-18T20:00:02;100109.97;;;10.90;100.00
21100;BME280;10708;50.824;4.408;2023-03-18T20:05:14;100114.38;;;10.90;100.00
21100;BME280;10708;50.824;4.408;2023-03-18T20:10:18;100116.88;;;10.93;100.00
21100;BME280;10708;50.824;4.408;2023-03-18T20:15:22;100125.59;;;10.95;100.00
21100;BME280;10708;50.824;4.408;2023-03-18T20:20:29;100130.78;;;10.96;100.00
21100;BME280;10708;50.824;4.408;2023-03-18T20:25:34;100152.72;;;10.97;100.00
21100;BME280;10708;50.824;4.408;2023-03-18T20:30:39;100158.19;;;10.92;100.00
21100;BME280;10708;50.824;4.408;2023-03-18T20:35:44;100161.84;;;10.88;100.00
21100;BME280;10708;50.824;4.408;2023-03-18T20:40:47;100154.03;;;10.87;100.00
21100;BME280;10708;50.824;4.408;2023-03-18T20:45:50;100162.06;;;10.84;100.00
21100;BME280;10708;50.824;4.408;2023-03-18T20:50:54;100153.38;;;10.82;100.00
21100;BME280;10708;50.824;4.408;2023-03-18T20:55:58;100157.16;;;10.76;100.00
21100;BME280;10708;50.824;4.408;2023-03-18T21:01:00;100148.44;;;10.74;100.00
21100;BME280;10708;50.824;4.408;2023-03-18T21:06:10;100152.13;;;10.70;100.00
21100;BME280;10708;50.824;4.408;2023-03-18T21:11:18;100150.66;;;10.63;100.00
21100;BME280;10708;50.824;4.408;2023-03-18T21:16:22;100159.56;;;10.60;100.00
21100;BME280;10708;50.824;4.408;2023-03-18T21:21:30;100148.22;;;10.58;100.00
21100;BME280;10708;50.824;4.408;2023-03-18T21:26:33;100157.94;;;10.58;100.00
21100;BME280;10708;50.824;4.408;2023-03-18T21:31:36;100164.56;;;10.46;100.00
21100;BME280;10708;50.824;4.408;2023-03-18T21:36:40;100163.75;;;10.44;100.00
21100;BME280;10708;50.824;4.408;2023-03-18T21:41:42;100156.84;;;10.42;100.00
21100;BME280;10708;50.824;4.408;2023-03-18T21:46:44;100162.91;;;10.44;100.00
21100;BME280;10708;50.824;4.408;2023-03-18T21:51:48;100161.19;;;10.43;100.00
21100;BME280;10708;50.824;4.408;2023-03-18T21:56:50;100154.19;;;10.42;100.00
21100;BME280;10708;50.824;4.408;2023-03-18T22:01:53;100152.38;;;10.44;100.00
21100;BME280;10708;50.824;4.408;2023-03-18T22:06:57;100152.44;;;10.42;100.00
21100;BME280;10708;50.824;4.408;2023-03-18T22:11:59;100155.91;;;10.43;100.00
21100;BME280;10708;50.824;4.408;2023-03-18T22:17:01;100150.72;;;10.41;100.00
21100;BME280;10708;50.824;4.408;2023-03-18T22:22:09;100146.50;;;10.37;100.00
21100;BME280;10708;50.824;4.408;2023-03-18T22:27:20;100147.38;;;10.38;100.00
21100;BME280;10708;50.824;4.408;2023-03-18T22:32:35;100144.66;;;10.39;100.00
21100;BME280;10708;50.824;4.408;2023-03-18T22:37:39;100148.28;;;10.37;100.00
21100;BME280;10708;50.824;4.408;2023-03-18T22:42:42;100146.50;;;10.37;100.00
21100;BME280;10708;50.824;4.408;2023-03-18T22:47:44;100146.69;;;10.32;100.00
21100;BME280;10708;50.824;4.408;2023-03-18T22:52:49;100157.16;;;10.34;100.00
21100;BME280;10708;50.824;4.408;2023-03-18T22:57:52;100148.41;;;10.33;100.00
21100;BME280;10708;50.824;4.408;2023-03-18T23:02:54;100143.09;;;10.35;100.00
21100;BME280;10708;50.824;4.408;2023-03-18T23:07:58;100138.69;;;10.35;100.00
21100;BME280;10708;50.824;4.408;2023-03-18T23:13:04;100148.22;;;10.38;100.00
21100;BME280;10708;50.824;4.408;2023-03-18T23:18:11;100154.41;;;10.37;100.00
21100;BME280;10708;50.824;4.408;2023-03-18T23:23:16;100155.19;;;10.39;100.00
21100;BME280;10708;50.824;4.408;2023-03-18T23:28:20;100156.91;;;10.40;100.00
21100;BME280;10708;50.824;4.408;2023-03-18T23:33:23;100153.34;;;10.41;100.00
21100;BME280;10708;50.824;4.408;2023-03-18T23:38:27;100158.66;;;10.40;100.00
21100;BME280;10708;50.824;4.408;2023-03-18T23:43:29;100163.16;;;10.38;100.00
21100;BME280;10708;50.824;4.408;2023-03-18T23:48:32;100158.75;;;10.38;100.00
21100;BME280;10708;50.824;4.408;2023-03-18T23:53:36;100157.91;;;10.38;100.00
21100;BME280;10708;50.824;4.408;2023-03-18T23:58:38;100171.13;;;10.36;100.00
